createdAt,value
2019-05-20T00:00:19.152Z,985.07
2019-05-20T00:01:19.164Z,985.03
2019-05-20T00:02:25.821Z,984.93
2019-05-20T00:03:20.149Z,985.02
2019-05-20T00:04:19.943Z,985.03
2019-05-20T00:05:19.112Z,984.96
2019-05-20T00:06:19.090Z,985.02
2019-05-20T00:07:19.079Z,984.94
2019-05-20T00:08:19.091Z,984.99
2019-05-20T00:09:19.058Z,984.98
2019-05-20T00:10:19.049Z,984.97
2019-05-20T00:11:19.038Z,984.95
2019-05-20T00:12:19.029Z,985.02
2019-05-20T00:13:19.837Z,984.97
2019-05-20T00:14:19.006Z,984.97
2019-05-20T00:15:18.995Z,984.96
2019-05-20T00:16:19.002Z,984.95
2019-05-20T00:17:18.973Z,985.02
2019-05-20T00:18:18.992Z,985.07
2019-05-20T00:19:18.949Z,985.01
2019-05-20T00:20:18.944Z,985.03
2019-05-20T00:21:18.932Z,985.05
2019-05-20T00:22:19.492Z,985.01
2019-05-20T00:23:18.933Z,984.96
2019-05-20T00:24:18.931Z,984.99
2019-05-20T00:25:19.558Z,985.05
2019-05-20T00:26:18.881Z,985.00
2019-05-20T00:27:18.862Z,984.96
2019-05-20T00:28:18.891Z,984.96
2019-05-20T00:29:18.847Z,984.98
2019-05-20T00:30:18.837Z,984.89
2019-05-20T00:31:18.826Z,984.93
2019-05-20T00:32:18.811Z,984.87
2019-05-20T00:33:18.806Z,984.96
2019-05-20T00:34:33.860Z,984.99
2019-05-20T00:35:20.647Z,984.92
2019-05-20T00:36:18.768Z,984.97
2019-05-20T00:37:18.758Z,984.97
2019-05-20T00:38:19.526Z,984.97
2019-05-20T00:39:18.763Z,984.98
2019-05-20T00:40:18.726Z,984.98
2019-05-20T00:41:18.723Z,985.01
2019-05-20T00:42:18.706Z,985.01
2019-05-20T00:43:18.703Z,984.94
2019-05-20T00:44:19.641Z,984.97
2019-05-20T00:45:18.674Z,985.05
2019-05-20T00:46:19.423Z,984.96
2019-05-20T00:47:18.653Z,985.03
2019-05-20T00:48:18.643Z,985.07
2019-05-20T00:49:18.661Z,985.05
2019-05-20T00:50:18.621Z,985.05
2019-05-20T00:51:18.648Z,985.03
2019-05-20T00:52:18.607Z,985.01
2019-05-20T00:53:18.592Z,985.01
2019-05-20T00:54:18.611Z,985.06
2019-05-20T00:55:18.573Z,984.98
2019-05-20T00:56:18.558Z,985.07
2019-05-20T00:57:18.547Z,985.01
2019-05-20T00:58:18.538Z,984.99
2019-05-20T00:59:18.550Z,985.00
2019-05-20T01:00:18.515Z,985.00
2019-05-20T01:01:18.508Z,984.96
2019-05-20T01:02:18.494Z,984.96
2019-05-20T01:03:18.483Z,984.98
2019-05-20T01:04:19.055Z,984.93
2019-05-20T01:05:18.496Z,984.94
2019-05-20T01:06:19.232Z,984.95
2019-05-20T01:07:18.514Z,984.90
2019-05-20T01:08:18.434Z,984.96
2019-05-20T01:09:18.453Z,984.86
2019-05-20T01:10:18.412Z,984.82
2019-05-20T01:11:18.405Z,984.93
2019-05-20T01:12:18.403Z,984.92
2019-05-20T01:13:18.413Z,985.00
2019-05-20T01:14:18.422Z,984.92
2019-05-20T01:15:18.370Z,984.97
2019-05-20T01:16:18.352Z,984.95
2019-05-20T01:17:18.340Z,984.94
2019-05-20T01:18:18.328Z,985.02
2019-05-20T01:19:18.345Z,984.99
2019-05-20T01:20:18.307Z,985.00
2019-05-20T01:21:18.298Z,984.96
2019-05-20T01:22:18.307Z,984.95
2019-05-20T01:23:18.286Z,984.94
2019-05-20T01:24:18.288Z,984.89
2019-05-20T01:25:18.256Z,984.89
2019-05-20T01:26:18.244Z,984.92
2019-05-20T01:27:18.226Z,984.92
2019-05-20T01:28:18.222Z,984.82
2019-05-20T01:29:18.256Z,984.82
2019-05-20T01:30:18.195Z,984.83
2019-05-20T01:31:18.194Z,984.77
2019-05-20T01:32:18.184Z,984.75
2019-05-20T01:33:18.163Z,984.71
2019-05-20T01:34:18.161Z,984.71
2019-05-20T01:35:18.185Z,984.70
2019-05-20T01:36:18.140Z,984.66
2019-05-20T01:37:18.121Z,984.72
2019-05-20T01:38:18.110Z,984.70
2019-05-20T01:39:18.109Z,984.69
2019-05-20T01:40:18.119Z,984.66
2019-05-20T01:41:18.223Z,984.62
2019-05-20T01:42:18.078Z,984.65
2019-05-20T01:43:18.058Z,984.65
2019-05-20T01:44:18.050Z,984.66
2019-05-20T01:45:18.066Z,984.66
2019-05-20T01:46:18.028Z,984.72
2019-05-20T01:47:18.018Z,984.66
2019-05-20T01:48:18.007Z,984.64
2019-05-20T01:49:17.995Z,984.68
2019-05-20T01:50:18.031Z,984.68
2019-05-20T01:51:17.975Z,984.74
2019-05-20T01:52:17.964Z,984.67
2019-05-20T01:53:17.952Z,984.65
2019-05-20T01:54:17.941Z,984.61
2019-05-20T01:55:17.961Z,984.67
2019-05-20T01:56:17.924Z,984.66
2019-05-20T01:57:17.924Z,984.60
2019-05-20T01:58:17.907Z,984.60
2019-05-20T01:59:17.889Z,984.58
2019-05-20T02:00:18.851Z,984.52
2019-05-20T02:01:17.901Z,984.63
2019-05-20T02:02:19.843Z,984.60
2019-05-20T02:03:30.885Z,984.60
2019-05-20T02:04:18.839Z,984.62
2019-05-20T02:05:17.869Z,984.60
2019-05-20T02:06:17.822Z,984.64
2019-05-20T02:07:17.829Z,984.68
2019-05-20T02:08:18.359Z,984.64
2019-05-20T02:09:17.780Z,984.62
2019-05-20T02:10:17.796Z,984.57
2019-05-20T02:11:17.765Z,984.55
2019-05-20T02:12:17.749Z,984.57
2019-05-20T02:13:17.743Z,984.49
2019-05-20T02:14:17.842Z,984.50
2019-05-20T02:15:17.753Z,984.48
2019-05-20T02:16:17.704Z,984.47
2019-05-20T02:17:17.726Z,984.48
2019-05-20T02:18:17.683Z,984.48
2019-05-20T02:19:17.671Z,984.48
2019-05-20T02:20:17.695Z,984.54
2019-05-20T02:21:17.654Z,984.49
2019-05-20T02:22:17.642Z,984.43
2019-05-20T02:23:17.630Z,984.41
2019-05-20T02:24:17.619Z,984.38
2019-05-20T02:25:17.638Z,984.40
2019-05-20T02:26:18.289Z,984.38
2019-05-20T02:27:17.592Z,984.41
2019-05-20T02:28:17.588Z,984.39
2019-05-20T02:29:17.582Z,984.38
2019-05-20T02:30:17.590Z,984.39
2019-05-20T02:31:17.549Z,984.42
2019-05-20T02:32:18.405Z,984.50
2019-05-20T02:33:17.528Z,984.45
2019-05-20T02:34:18.418Z,984.49
2019-05-20T02:35:17.552Z,984.40
2019-05-20T02:36:17.496Z,984.42
2019-05-20T02:37:17.483Z,984.43
2019-05-20T02:38:17.478Z,984.41
2019-05-20T02:39:17.464Z,984.41
2019-05-20T02:40:17.500Z,984.49
2019-05-20T02:41:17.442Z,984.43
2019-05-20T02:42:17.431Z,984.46
2019-05-20T02:43:17.412Z,984.46
2019-05-20T02:44:17.437Z,984.48
2019-05-20T02:45:17.427Z,984.45
2019-05-20T02:46:17.413Z,984.43
2019-05-20T02:47:17.374Z,984.42
2019-05-20T02:48:17.367Z,984.41
2019-05-20T02:49:17.368Z,984.42
2019-05-20T02:50:17.349Z,984.39
2019-05-20T02:51:17.364Z,984.42
2019-05-20T02:52:17.319Z,984.39
2019-05-20T02:53:17.308Z,984.42
2019-05-20T02:54:17.937Z,984.42
2019-05-20T02:55:17.818Z,984.38
2019-05-20T02:56:17.318Z,984.38
2019-05-20T02:57:17.267Z,984.33
2019-05-20T02:58:17.827Z,984.31
2019-05-20T02:59:17.246Z,984.42
2019-05-20T03:00:17.247Z,984.34
2019-05-20T03:01:17.264Z,984.34
2019-05-20T03:02:17.255Z,984.36
2019-05-20T03:03:17.210Z,984.31
2019-05-20T03:04:17.194Z,984.38
2019-05-20T03:05:17.203Z,984.30
2019-05-20T03:06:17.199Z,984.36
2019-05-20T03:07:17.161Z,984.36
2019-05-20T03:08:17.155Z,984.37
2019-05-20T03:09:17.140Z,984.29
2019-05-20T03:10:17.133Z,984.34
2019-05-20T03:11:17.148Z,984.33
2019-05-20T03:12:17.130Z,984.32
2019-05-20T03:13:17.100Z,984.33
2019-05-20T03:14:17.093Z,984.29
2019-05-20T03:15:17.162Z,984.18
2019-05-20T03:16:17.757Z,984.25
2019-05-20T03:17:17.058Z,984.20
2019-05-20T03:18:17.074Z,984.19
2019-05-20T03:19:17.041Z,984.23
2019-05-20T03:20:17.024Z,984.17
2019-05-20T03:21:17.974Z,984.20
2019-05-20T03:22:17.002Z,984.18
2019-05-20T03:23:16.999Z,984.21
2019-05-20T03:24:17.853Z,984.17
2019-05-20T03:25:16.997Z,984.24
2019-05-20T03:26:16.989Z,984.22
2019-05-20T03:27:16.952Z,984.26
2019-05-20T03:28:16.950Z,984.25
2019-05-20T03:29:16.921Z,984.22
2019-05-20T03:30:16.915Z,984.21
2019-05-20T03:31:16.942Z,984.20
2019-05-20T03:32:16.915Z,984.23
2019-05-20T03:33:16.904Z,984.23
2019-05-20T03:34:42.351Z,984.23
2019-05-20T03:35:17.859Z,984.23
2019-05-20T03:36:16.878Z,984.25
2019-05-20T03:37:16.858Z,984.24
2019-05-20T03:38:16.837Z,984.24
2019-05-20T03:39:16.833Z,984.18
2019-05-20T03:40:16.852Z,984.19
2019-05-20T03:41:16.851Z,984.18
2019-05-20T03:42:16.878Z,984.15
2019-05-20T03:43:16.777Z,984.16
2019-05-20T03:44:17.334Z,984.21
2019-05-20T03:45:16.753Z,984.18
2019-05-20T03:46:16.774Z,984.19
2019-05-20T03:47:16.737Z,984.25
2019-05-20T03:48:17.334Z,984.22
2019-05-20T03:49:16.711Z,984.24
2019-05-20T03:50:16.702Z,984.19
2019-05-20T03:51:16.725Z,984.20
2019-05-20T03:52:16.704Z,984.15
2019-05-20T03:53:16.671Z,984.18
2019-05-20T03:54:16.673Z,984.19
2019-05-20T03:55:16.652Z,984.17
2019-05-20T03:56:16.668Z,984.15
2019-05-20T03:57:16.652Z,984.14
2019-05-20T03:58:16.650Z,984.16
2019-05-20T03:59:16.617Z,984.08
2019-05-20T04:00:16.613Z,984.15
2019-05-20T04:01:16.627Z,984.18
2019-05-20T04:02:16.586Z,984.20
2019-05-20T04:03:16.640Z,984.18
2019-05-20T04:04:17.546Z,984.20
2019-05-20T04:05:16.541Z,984.22
2019-05-20T04:06:16.532Z,984.11
2019-05-20T04:07:16.551Z,984.25
2019-05-20T04:08:17.325Z,984.24
2019-05-20T04:09:16.504Z,984.23
2019-05-20T04:10:16.491Z,984.20
2019-05-20T04:11:16.482Z,984.20
2019-05-20T04:12:16.495Z,984.25
2019-05-20T04:13:16.487Z,984.18
2019-05-20T04:14:16.471Z,984.17
2019-05-20T04:15:16.470Z,984.13
2019-05-20T04:16:16.421Z,984.14
2019-05-20T04:17:16.457Z,984.19
2019-05-20T04:18:16.400Z,984.19
2019-05-20T04:19:16.407Z,984.15
2019-05-20T04:20:16.388Z,984.14
2019-05-20T04:21:16.380Z,984.15
2019-05-20T04:22:16.888Z,984.16
2019-05-20T04:23:16.355Z,984.18
2019-05-20T04:24:16.347Z,984.19
2019-05-20T04:25:16.357Z,984.20
2019-05-20T04:26:16.315Z,984.23
2019-05-20T04:27:16.335Z,984.22
2019-05-20T04:28:16.304Z,984.24
2019-05-20T04:29:16.295Z,984.33
2019-05-20T04:30:18.873Z,984.33
2019-05-20T04:31:16.269Z,984.33
2019-05-20T04:32:16.282Z,984.38
2019-05-20T04:33:16.336Z,984.39
2019-05-20T04:34:16.231Z,984.37
2019-05-20T04:35:21.912Z,984.34
2019-05-20T04:36:17.209Z,984.34
2019-05-20T04:37:16.227Z,984.40
2019-05-20T04:38:16.195Z,984.38
2019-05-20T04:39:16.178Z,984.34
2019-05-20T04:40:16.169Z,984.37
2019-05-20T04:41:16.158Z,984.35
2019-05-20T04:42:17.108Z,984.38
2019-05-20T04:43:16.142Z,984.31
2019-05-20T04:44:16.129Z,984.35
2019-05-20T04:45:16.131Z,984.33
2019-05-20T04:46:16.121Z,984.33
2019-05-20T04:47:16.975Z,984.27
2019-05-20T04:48:16.878Z,984.33
2019-05-20T04:49:16.073Z,984.32
2019-05-20T04:50:16.096Z,984.33
2019-05-20T04:51:16.055Z,984.29
2019-05-20T04:52:16.071Z,984.24
2019-05-20T04:53:16.042Z,984.36
2019-05-20T04:54:16.031Z,984.31
2019-05-20T04:55:16.019Z,984.32
2019-05-20T04:56:16.019Z,984.31
2019-05-20T04:57:16.013Z,984.37
2019-05-20T04:58:15.977Z,984.31
2019-05-20T04:59:15.973Z,984.28
2019-05-20T05:00:16.033Z,984.34
2019-05-20T05:01:16.699Z,984.36
2019-05-20T05:02:15.969Z,984.36
2019-05-20T05:03:15.925Z,984.34
2019-05-20T05:04:15.915Z,984.34
2019-05-20T05:05:15.907Z,984.43
2019-05-20T05:06:15.895Z,984.41
2019-05-20T05:07:15.914Z,984.47
2019-05-20T05:08:15.867Z,984.41
2019-05-20T05:09:15.883Z,984.45
2019-05-20T05:10:15.874Z,984.47
2019-05-20T05:11:15.840Z,984.52
2019-05-20T05:12:15.854Z,984.51
2019-05-20T05:13:16.518Z,984.45
2019-05-20T05:14:15.810Z,984.48
2019-05-20T05:15:15.822Z,984.49
2019-05-20T05:16:15.783Z,984.48
2019-05-20T05:17:17.506Z,984.45
2019-05-20T05:18:15.796Z,984.38
2019-05-20T05:19:15.750Z,984.44
2019-05-20T05:20:18.469Z,984.43
2019-05-20T05:21:15.737Z,984.46
2019-05-20T05:22:15.719Z,984.52
2019-05-20T05:23:15.737Z,984.58
2019-05-20T05:24:15.701Z,984.63
2019-05-20T05:25:15.688Z,984.58
2019-05-20T05:26:15.678Z,984.56
2019-05-20T05:27:15.700Z,984.51
2019-05-20T05:28:15.709Z,984.49
2019-05-20T05:29:15.646Z,984.52
2019-05-20T05:30:15.636Z,984.55
2019-05-20T05:31:15.627Z,984.64
2019-05-20T05:32:15.651Z,984.65
2019-05-20T05:33:15.664Z,984.64
2019-05-20T05:34:15.599Z,984.70
2019-05-20T05:35:15.602Z,984.73
2019-05-20T05:36:15.586Z,984.64
2019-05-20T05:37:15.562Z,984.57
2019-05-20T05:38:16.138Z,984.60
2019-05-20T05:39:15.541Z,984.58
2019-05-20T05:40:15.561Z,984.52
2019-05-20T05:41:15.563Z,984.62
2019-05-20T05:42:15.529Z,984.61
2019-05-20T05:43:15.529Z,984.56
2019-05-20T05:44:15.490Z,984.62
2019-05-20T05:45:16.266Z,984.62
2019-05-20T05:46:16.267Z,984.66
2019-05-20T05:47:15.474Z,984.57
2019-05-20T05:48:15.478Z,984.63
2019-05-20T05:49:15.437Z,984.56
2019-05-20T05:50:15.428Z,984.59
2019-05-20T05:51:15.453Z,984.60
2019-05-20T05:52:15.413Z,984.65
2019-05-20T05:53:15.426Z,984.64
2019-05-20T05:54:15.384Z,984.61
2019-05-20T05:55:15.383Z,984.63
2019-05-20T05:56:15.406Z,984.59
2019-05-20T05:57:16.260Z,984.58
2019-05-20T05:58:15.372Z,984.60
2019-05-20T05:59:15.335Z,984.64
2019-05-20T06:00:15.322Z,984.60
2019-05-20T06:01:15.311Z,984.59
2019-05-20T06:02:15.301Z,984.59
2019-05-20T06:03:15.352Z,984.62
2019-05-20T06:04:15.280Z,984.67
2019-05-20T06:05:15.267Z,984.62
2019-05-20T06:06:15.259Z,984.63
2019-05-20T06:07:15.247Z,984.58
2019-05-20T06:08:15.273Z,984.63
2019-05-20T06:09:15.248Z,984.65
2019-05-20T06:10:15.218Z,984.60
2019-05-20T06:11:15.206Z,984.60
2019-05-20T06:12:15.196Z,984.61
2019-05-20T06:13:15.187Z,984.63
2019-05-20T06:14:15.197Z,984.58
2019-05-20T06:15:15.165Z,984.63
2019-05-20T06:16:15.153Z,984.61
2019-05-20T06:17:15.142Z,984.64
2019-05-20T06:18:15.134Z,984.65
2019-05-20T06:19:15.151Z,984.61
2019-05-20T06:20:15.111Z,984.60
2019-05-20T06:21:15.095Z,984.63
2019-05-20T06:22:15.091Z,984.55
2019-05-20T06:23:15.751Z,984.48
2019-05-20T06:24:15.091Z,984.53
2019-05-20T06:25:15.766Z,984.51
2019-05-20T06:26:15.096Z,984.54
2019-05-20T06:27:15.032Z,984.51
2019-05-20T06:28:15.020Z,984.49
2019-05-20T06:29:15.039Z,984.52
2019-05-20T06:30:15.008Z,984.61
2019-05-20T06:31:14.996Z,984.56
2019-05-20T06:32:15.332Z,984.44
2019-05-20T06:33:14.967Z,984.49
2019-05-20T06:34:15.104Z,984.46
2019-05-20T06:35:15.101Z,984.44
2019-05-20T06:36:26.379Z,984.49
2019-05-20T06:37:15.937Z,984.52
2019-05-20T06:38:14.937Z,984.46
2019-05-20T06:39:14.941Z,984.46
2019-05-20T06:40:15.655Z,984.42
2019-05-20T06:41:14.891Z,984.50
2019-05-20T06:42:14.893Z,984.39
2019-05-20T06:43:14.862Z,984.47
2019-05-20T06:44:14.888Z,984.39
2019-05-20T06:45:14.874Z,984.42
2019-05-20T06:46:14.829Z,984.49
2019-05-20T06:47:14.821Z,984.46
2019-05-20T06:48:14.811Z,984.45
2019-05-20T06:49:14.829Z,984.39
2019-05-20T06:50:15.441Z,984.36
2019-05-20T06:51:14.805Z,984.38
2019-05-20T06:52:14.786Z,984.44
2019-05-20T06:53:14.762Z,984.40
2019-05-20T06:54:14.772Z,984.39
2019-05-20T06:55:14.742Z,984.36
2019-05-20T06:56:14.731Z,984.43
2019-05-20T06:57:14.897Z,984.42
2019-05-20T06:58:14.706Z,984.44
2019-05-20T06:59:15.271Z,984.43
2019-05-20T07:00:14.677Z,984.43
2019-05-20T07:01:14.669Z,984.40
2019-05-20T07:02:14.665Z,984.41
2019-05-20T07:03:14.695Z,984.39
2019-05-20T07:04:14.664Z,984.36
2019-05-20T07:05:14.629Z,984.31
2019-05-20T07:06:14.621Z,984.44
2019-05-20T07:07:21.069Z,984.43
2019-05-20T07:08:15.616Z,984.43
2019-05-20T07:09:14.612Z,984.51
2019-05-20T07:10:15.397Z,984.49
2019-05-20T07:11:14.569Z,984.50
2019-05-20T07:12:14.553Z,984.45
2019-05-20T07:13:16.334Z,984.49
2019-05-20T07:14:14.597Z,984.52
2019-05-20T07:15:14.520Z,984.46
2019-05-20T07:16:15.277Z,984.48
2019-05-20T07:17:14.504Z,984.56
2019-05-20T07:18:15.359Z,984.52
2019-05-20T07:19:14.505Z,984.49
2019-05-20T07:20:14.475Z,984.48
2019-05-20T07:21:14.480Z,984.47
2019-05-20T07:22:14.448Z,984.51
2019-05-20T07:23:14.443Z,984.55
2019-05-20T07:24:14.457Z,984.53
2019-05-20T07:25:14.439Z,984.57
2019-05-20T07:26:14.405Z,984.56
2019-05-20T07:27:14.398Z,984.57
2019-05-20T07:28:15.395Z,984.58
2019-05-20T07:29:14.410Z,984.51
2019-05-20T07:30:15.499Z,984.53
2019-05-20T07:31:14.352Z,984.43
2019-05-20T07:32:14.340Z,984.50
2019-05-20T07:33:14.332Z,984.53
2019-05-20T07:34:14.350Z,984.49
2019-05-20T07:35:28.834Z,984.52
2019-05-20T07:36:15.302Z,984.42
2019-05-20T07:37:14.290Z,984.46
2019-05-20T07:38:14.280Z,984.43
2019-05-20T07:39:14.314Z,984.44
2019-05-20T07:40:14.265Z,984.41
2019-05-20T07:41:14.250Z,984.46
2019-05-20T07:42:14.240Z,984.51
2019-05-20T07:43:14.220Z,984.48
2019-05-20T07:44:14.259Z,984.47
2019-05-20T07:45:14.206Z,984.51
2019-05-20T07:46:14.197Z,984.40
2019-05-20T07:47:14.177Z,984.41
2019-05-20T07:48:14.166Z,984.43
2019-05-20T07:49:14.189Z,984.41
2019-05-20T07:50:14.147Z,984.46
2019-05-20T07:51:14.153Z,984.54
2019-05-20T07:52:14.220Z,984.47
2019-05-20T07:53:14.837Z,984.45
2019-05-20T07:54:14.837Z,984.52
2019-05-20T07:55:14.095Z,984.50
2019-05-20T07:56:14.087Z,984.49
2019-05-20T07:57:14.154Z,984.48
2019-05-20T07:58:14.065Z,984.54
2019-05-20T07:59:14.113Z,984.50
2019-05-20T08:00:14.055Z,984.51
2019-05-20T08:01:14.045Z,984.56
2019-05-20T08:02:14.570Z,984.47
2019-05-20T08:03:14.023Z,984.47
2019-05-20T08:04:14.142Z,984.45
2019-05-20T08:05:14.006Z,984.49
2019-05-20T08:06:14.840Z,984.44
2019-05-20T08:07:27.330Z,984.44
2019-05-20T08:08:14.961Z,984.42
2019-05-20T08:09:13.948Z,984.35
2019-05-20T08:10:13.971Z,984.39
2019-05-20T08:11:13.930Z,984.35
2019-05-20T08:12:13.964Z,984.40
2019-05-20T08:13:13.908Z,984.43
2019-05-20T08:14:13.906Z,984.39
2019-05-20T08:15:13.907Z,984.38
2019-05-20T08:16:14.406Z,984.36
2019-05-20T08:17:13.886Z,984.41
2019-05-20T08:18:13.943Z,984.41
2019-05-20T08:19:13.854Z,984.36
2019-05-20T08:20:13.877Z,984.33
2019-05-20T08:21:13.871Z,984.36
2019-05-20T08:22:14.512Z,984.33
2019-05-20T08:23:13.807Z,984.38
2019-05-20T08:24:13.825Z,984.38
2019-05-20T08:25:13.835Z,984.32
2019-05-20T08:26:13.791Z,984.37
2019-05-20T08:27:13.767Z,984.44
2019-05-20T08:28:13.747Z,984.37
2019-05-20T08:29:13.745Z,984.35
2019-05-20T08:30:14.275Z,984.35
2019-05-20T08:31:13.718Z,984.32
2019-05-20T08:32:13.739Z,984.29
2019-05-20T08:33:13.691Z,984.23
2019-05-20T08:34:13.680Z,984.23
2019-05-20T08:35:13.698Z,984.22
2019-05-20T08:36:13.659Z,984.24
2019-05-20T08:37:13.686Z,984.12
2019-05-20T08:38:13.640Z,984.23
2019-05-20T08:39:13.627Z,984.13
2019-05-20T08:40:14.626Z,984.13
2019-05-20T08:41:13.607Z,984.13
2019-05-20T08:42:13.595Z,984.18
2019-05-20T08:43:13.608Z,984.14
2019-05-20T08:44:13.586Z,984.18
2019-05-20T08:45:13.599Z,984.12
2019-05-20T08:46:13.567Z,984.18
2019-05-20T08:47:13.551Z,984.15
2019-05-20T08:48:13.543Z,984.17
2019-05-20T08:49:13.526Z,984.14
2019-05-20T08:50:16.120Z,984.15
2019-05-20T08:51:13.502Z,984.13
2019-05-20T08:52:13.503Z,984.23
2019-05-20T08:53:14.052Z,984.05
2019-05-20T08:54:13.472Z,984.09
2019-05-20T08:55:13.502Z,984.05
2019-05-20T08:56:13.485Z,984.14
2019-05-20T08:57:13.446Z,984.14
2019-05-20T08:58:14.090Z,984.10
2019-05-20T08:59:13.417Z,984.09
2019-05-20T09:00:13.432Z,984.06
2019-05-20T09:01:13.401Z,984.08
2019-05-20T09:02:13.407Z,984.08
2019-05-20T09:03:13.370Z,984.05
2019-05-20T09:04:13.371Z,984.07
2019-05-20T09:05:13.377Z,984.04
2019-05-20T09:06:13.380Z,984.04
2019-05-20T09:07:13.339Z,983.96
2019-05-20T09:08:13.326Z,983.99
2019-05-20T09:09:13.307Z,984.05
2019-05-20T09:10:14.275Z,984.00
2019-05-20T09:11:13.298Z,983.99
2019-05-20T09:12:13.315Z,984.10
2019-05-20T09:13:14.085Z,984.01
2019-05-20T09:14:13.312Z,984.03
2019-05-20T09:15:14.084Z,984.03
2019-05-20T09:16:14.088Z,984.03
2019-05-20T09:17:13.244Z,984.04
2019-05-20T09:18:13.235Z,983.99
2019-05-20T09:19:13.212Z,984.04
2019-05-20T09:20:13.263Z,984.01
2019-05-20T09:21:13.422Z,983.97
2019-05-20T09:22:13.179Z,983.99
2019-05-20T09:23:13.169Z,984.01
2019-05-20T09:24:13.159Z,984.00
2019-05-20T09:25:13.275Z,983.93
2019-05-20T09:26:13.144Z,983.92
2019-05-20T09:27:13.121Z,983.95
2019-05-20T09:28:13.135Z,983.99
2019-05-20T09:29:13.107Z,983.98
2019-05-20T09:30:13.101Z,983.94
2019-05-20T09:31:13.301Z,984.00
2019-05-20T09:32:13.077Z,983.91
2019-05-20T09:33:13.070Z,984.01
2019-05-20T09:34:13.090Z,983.96
2019-05-20T09:35:13.045Z,983.95
2019-05-20T09:36:13.075Z,983.91
2019-05-20T09:37:13.045Z,983.98
2019-05-20T09:38:20.394Z,983.91
2019-05-20T09:39:14.002Z,983.94
2019-05-20T09:40:12.986Z,983.98
2019-05-20T09:41:13.005Z,983.95
2019-05-20T09:42:12.980Z,983.99
2019-05-20T09:43:12.959Z,983.97
2019-05-20T09:44:13.584Z,983.95
2019-05-20T09:45:12.946Z,983.91
2019-05-20T09:46:13.024Z,983.93
2019-05-20T09:47:12.916Z,983.85
2019-05-20T09:48:12.903Z,983.86
2019-05-20T09:49:12.893Z,983.94
2019-05-20T09:50:12.890Z,983.89
2019-05-20T09:51:12.926Z,983.85
2019-05-20T09:52:13.681Z,983.93
2019-05-20T09:53:12.954Z,983.99
2019-05-20T09:54:12.842Z,983.91
2019-05-20T09:55:13.680Z,983.94
2019-05-20T09:56:12.853Z,983.90
2019-05-20T09:57:12.811Z,983.93
2019-05-20T09:58:12.804Z,983.84
2019-05-20T09:59:16.369Z,983.86
2019-05-20T10:00:13.579Z,983.87
2019-05-20T10:01:12.796Z,983.90
2019-05-20T10:02:12.759Z,983.90
2019-05-20T10:03:12.748Z,983.85
2019-05-20T10:04:12.759Z,983.83
2019-05-20T10:05:13.637Z,983.85
2019-05-20T10:06:12.747Z,983.86
2019-05-20T10:07:12.706Z,983.84
2019-05-20T10:08:12.697Z,983.92
2019-05-20T10:09:12.692Z,983.91
2019-05-20T10:10:12.675Z,983.85
2019-05-20T10:11:12.962Z,983.88
2019-05-20T10:12:12.655Z,983.84
2019-05-20T10:13:13.328Z,983.83
2019-05-20T10:14:12.669Z,983.89
2019-05-20T10:15:12.625Z,983.89
2019-05-20T10:16:12.645Z,983.86
2019-05-20T10:17:12.602Z,983.92
2019-05-20T10:18:12.599Z,983.95
2019-05-20T10:19:12.583Z,983.91
2019-05-20T10:20:12.592Z,983.97
2019-05-20T10:21:12.562Z,983.91
2019-05-20T10:22:12.572Z,983.92
2019-05-20T10:23:15.813Z,983.76
2019-05-20T10:24:12.548Z,983.96
2019-05-20T10:25:12.522Z,983.95
2019-05-20T10:26:12.536Z,983.88
2019-05-20T10:27:12.565Z,983.84
2019-05-20T10:28:12.490Z,983.91
2019-05-20T10:29:12.478Z,983.91
2019-05-20T10:30:12.488Z,983.85
2019-05-20T10:31:13.299Z,984.02
2019-05-20T10:32:12.469Z,983.97
2019-05-20T10:33:12.438Z,983.93
2019-05-20T10:34:12.430Z,983.91
2019-05-20T10:35:12.426Z,983.96
2019-05-20T10:36:12.407Z,983.98
2019-05-20T10:37:12.416Z,983.95
2019-05-20T10:38:12.420Z,983.90
2019-05-20T10:39:12.375Z,983.97
2019-05-20T10:40:12.363Z,983.98
2019-05-20T10:41:12.362Z,983.97
2019-05-20T10:42:12.364Z,984.00
2019-05-20T10:43:12.340Z,984.01
2019-05-20T10:44:12.315Z,984.02
2019-05-20T10:45:12.311Z,983.96
2019-05-20T10:46:12.301Z,983.92
2019-05-20T10:47:12.313Z,983.95
2019-05-20T10:48:12.311Z,984.08
2019-05-20T10:49:12.263Z,984.09
2019-05-20T10:50:12.253Z,983.96
2019-05-20T10:51:12.251Z,984.09
2019-05-20T10:52:12.262Z,984.08
2019-05-20T10:53:12.253Z,983.93
2019-05-20T10:54:12.210Z,984.01
2019-05-20T10:55:12.206Z,984.00
2019-05-20T10:56:13.333Z,983.98
2019-05-20T10:57:12.540Z,983.97
2019-05-20T10:58:12.759Z,983.95
2019-05-20T10:59:12.565Z,983.94
2019-05-20T11:00:12.158Z,983.89
2019-05-20T11:01:12.148Z,983.89
2019-05-20T11:02:12.158Z,983.85
2019-05-20T11:03:12.127Z,983.85
2019-05-20T11:04:12.107Z,983.82
2019-05-20T11:05:12.108Z,983.81
2019-05-20T11:06:12.380Z,983.78
2019-05-20T11:07:12.105Z,983.80
2019-05-20T11:08:12.063Z,983.76
2019-05-20T11:09:14.431Z,983.69
2019-05-20T11:10:12.046Z,983.76
2019-05-20T11:11:14.484Z,983.74
2019-05-20T11:12:12.051Z,983.75
2019-05-20T11:13:12.015Z,983.78
2019-05-20T11:14:12.854Z,983.75
2019-05-20T11:15:11.993Z,983.82
2019-05-20T11:16:11.982Z,983.66
2019-05-20T11:17:15.037Z,983.77
2019-05-20T11:18:11.962Z,983.75
2019-05-20T11:19:11.952Z,983.66
2019-05-20T11:20:11.944Z,983.68
2019-05-20T11:21:11.931Z,983.75
2019-05-20T11:22:11.940Z,983.75
2019-05-20T11:23:12.800Z,983.71
2019-05-20T11:24:11.897Z,983.66
2019-05-20T11:25:11.890Z,983.69
2019-05-20T11:26:11.871Z,983.64
2019-05-20T11:27:11.890Z,983.64
2019-05-20T11:28:12.260Z,983.66
2019-05-20T11:29:11.902Z,983.63
2019-05-20T11:30:11.837Z,983.65
2019-05-20T11:31:12.330Z,983.64
2019-05-20T11:32:11.844Z,983.60
2019-05-20T11:33:11.806Z,983.58
2019-05-20T11:34:12.343Z,983.54
2019-05-20T11:35:11.777Z,983.56
2019-05-20T11:36:11.773Z,983.52
2019-05-20T11:37:11.806Z,983.59
2019-05-20T11:38:11.851Z,983.52
2019-05-20T11:39:11.762Z,983.56
2019-05-20T11:40:12.468Z,983.58
2019-05-20T11:41:11.713Z,983.56
2019-05-20T11:42:11.709Z,983.48
2019-05-20T11:43:11.742Z,983.52
2019-05-20T11:44:12.459Z,983.47
2019-05-20T11:45:11.676Z,983.43
2019-05-20T11:46:11.663Z,983.45
2019-05-20T11:47:11.650Z,983.45
2019-05-20T11:48:11.671Z,983.47
2019-05-20T11:49:11.635Z,983.40
2019-05-20T11:50:12.430Z,983.42
2019-05-20T11:51:11.620Z,983.35
2019-05-20T11:52:11.599Z,983.44
2019-05-20T11:53:11.619Z,983.41
2019-05-20T11:54:11.589Z,983.37
2019-05-20T11:55:12.545Z,983.32
2019-05-20T11:56:12.111Z,983.31
2019-05-20T11:57:11.548Z,983.33
2019-05-20T11:58:15.740Z,983.29
2019-05-20T11:59:11.526Z,983.28
2019-05-20T12:00:11.517Z,983.25
2019-05-20T12:01:11.506Z,983.22
2019-05-20T12:02:12.348Z,983.20
2019-05-20T12:03:11.508Z,983.27
2019-05-20T12:04:11.477Z,983.19
2019-05-20T12:05:11.494Z,983.14
2019-05-20T12:06:11.487Z,983.13
2019-05-20T12:07:11.443Z,983.10
2019-05-20T12:08:11.464Z,983.16
2019-05-20T12:09:11.413Z,983.09
2019-05-20T12:10:11.416Z,983.07
2019-05-20T12:11:11.404Z,983.06
2019-05-20T12:12:11.385Z,983.08
2019-05-20T12:13:11.459Z,983.09
2019-05-20T12:14:11.370Z,983.13
2019-05-20T12:15:11.352Z,983.11
2019-05-20T12:16:11.342Z,983.20
2019-05-20T12:17:11.337Z,983.22
2019-05-20T12:18:11.350Z,983.15
2019-05-20T12:19:11.340Z,983.14
2019-05-20T12:20:12.819Z,983.24
2019-05-20T12:21:11.293Z,983.24
2019-05-20T12:22:11.302Z,983.24
2019-05-20T12:23:11.299Z,983.24
2019-05-20T12:24:11.259Z,983.26
2019-05-20T12:25:11.257Z,983.32
2019-05-20T12:26:11.237Z,983.25
2019-05-20T12:27:11.227Z,983.26
2019-05-20T12:28:11.247Z,983.32